createdAt,value
2023-05-09T00:00:44.826Z,3.20
2023-05-09T00:03:51.720Z,3.50
2023-05-09T00:06:54.647Z,3.70
2023-05-09T00:09:57.724Z,3.70
2023-05-09T00:13:01.084Z,3.80
2023-05-09T00:16:04.371Z,3.70
2023-05-09T00:19:07.613Z,3.20
2023-05-09T00:22:12.951Z,3.40
2023-05-09T00:25:15.930Z,3.60
2023-05-09T00:28:20.097Z,3.00
2023-05-09T00:31:22.992Z,3.60
2023-05-09T00:34:25.660Z,3.10
2023-05-09T00:37:30.672Z,3.50
2023-05-09T00:40:33.552Z,3.40
2023-05-09T00:43:36.212Z,3.10
2023-05-09T00:46:40.109Z,3.30
2023-05-09T00:49:43.083Z,3.40
2023-05-09T00:52:45.739Z,3.10
2023-05-09T00:55:48.819Z,3.20
2023-05-09T00:58:52.200Z,3.20
2023-05-09T01:01:54.794Z,3.10
2023-05-09T01:04:58.578Z,3.00
2023-05-09T01:08:10.724Z,3.20
2023-05-09T01:11:47.788Z,3.40
2023-05-09T01:15:12.739Z,3.40
2023-05-09T01:18:26.277Z,3.40
2023-05-09T01:21:32.407Z,3.70
2023-05-09T01:24:54.767Z,3.50
2023-05-09T01:28:17.006Z,3.50
2023-05-09T01:31:20.170Z,3.60
2023-05-09T01:34:26.800Z,3.40
2023-05-09T01:37:32.114Z,4.20
2023-05-09T01:40:35.994Z,4.40
2023-05-09T01:43:40.594Z,5.00
2023-05-09T01:46:45.073Z,5.50
2023-05-09T01:49:48.293Z,4.90
2023-05-09T01:52:55.080Z,4.60
2023-05-09T01:55:59.444Z,4.40
2023-05-09T01:59:02.833Z,4.90
2023-05-09T02:02:07.862Z,4.60
2023-05-09T02:05:12.360Z,4.80
2023-05-09T02:08:15.644Z,4.60
2023-05-09T02:11:18.297Z,5.20
2023-05-09T02:14:20.931Z,4.50
2023-05-09T02:17:23.513Z,4.90
2023-05-09T02:20:26.297Z,4.80
2023-05-09T02:23:29.062Z,4.60
2023-05-09T02:26:31.938Z,4.10
2023-05-09T02:29:40.581Z,3.90
2023-05-09T02:35:48.865Z,4.30
2023-05-09T02:38:51.607Z,4.10
2023-05-09T02:41:54.164Z,4.60
2023-05-09T02:44:56.832Z,4.60
2023-05-09T02:47:59.829Z,4.50
2023-05-09T02:51:02.771Z,3.90
2023-05-09T02:54:06.474Z,4.40
2023-05-09T02:57:09.160Z,4.60
2023-05-09T03:00:12.411Z,5.00
2023-05-09T03:03:15.552Z,4.60
2023-05-09T03:06:18.349Z,4.20
2023-05-09T03:09:21.115Z,4.90
2023-05-09T03:12:24.088Z,5.30
2023-05-09T03:15:26.929Z,4.50
2023-05-09T03:18:29.524Z,5.10
2023-05-09T03:21:32.210Z,5.50
2023-05-09T03:24:34.852Z,4.60
2023-05-09T03:27:37.426Z,5.20
2023-05-09T03:30:40.000Z,5.10
2023-05-09T03:33:42.935Z,5.40
2023-05-09T03:36:45.449Z,5.90
2023-05-09T03:39:48.087Z,5.00
2023-05-09T03:42:50.610Z,5.10
2023-05-09T03:45:53.217Z,5.70
2023-05-09T03:48:55.974Z,4.90
2023-05-09T03:51:58.911Z,5.70
2023-05-09T03:55:01.534Z,5.00
2023-05-09T03:58:04.285Z,5.40
2023-05-09T04:01:06.952Z,4.30
2023-05-09T04:04:09.835Z,4.60
2023-05-09T04:07:12.790Z,4.90
2023-05-09T04:10:15.554Z,5.40
2023-05-09T04:13:18.250Z,4.50
2023-05-09T04:16:21.049Z,4.20
2023-05-09T04:19:23.855Z,5.50
2023-05-09T04:22:26.451Z,5.50
2023-05-09T04:25:29.595Z,5.00
2023-05-09T04:28:32.171Z,5.00
2023-05-09T04:31:35.306Z,5.50
2023-05-09T04:34:38.109Z,5.60
2023-05-09T04:37:40.767Z,5.80
2023-05-09T04:40:43.272Z,6.80
2023-05-09T04:43:46.107Z,6.50
2023-05-09T04:46:50.708Z,5.80
2023-05-09T04:49:53.272Z,5.90
2023-05-09T04:52:55.936Z,5.30
2023-05-09T04:55:58.513Z,5.10
2023-05-09T04:59:01.174Z,5.20
2023-05-09T05:02:03.766Z,5.00
2023-05-09T05:05:12.054Z,5.20
2023-05-09T05:11:21.854Z,4.70
2023-05-09T05:14:24.582Z,5.60
2023-05-09T05:17:29.676Z,6.50
2023-05-09T05:20:32.659Z,6.60
2023-05-09T05:23:35.385Z,7.20
2023-05-09T05:26:38.042Z,6.90
2023-05-09T05:29:40.713Z,6.30
2023-05-09T05:32:44.154Z,5.80
2023-05-09T05:35:46.857Z,5.10
2023-05-09T05:38:49.535Z,5.40
2023-05-09T05:41:52.954Z,5.80
2023-05-09T05:44:55.803Z,4.70
2023-05-09T05:47:58.484Z,5.40
2023-05-09T05:51:01.197Z,5.30
2023-05-09T05:54:04.128Z,4.80
2023-05-09T05:57:08.284Z,5.10
2023-05-09T06:00:11.865Z,4.70
2023-05-09T06:03:14.701Z,5.30
2023-05-09T06:06:17.508Z,5.30
2023-05-09T06:09:20.031Z,5.10
2023-05-09T06:12:22.568Z,5.10
2023-05-09T06:15:25.148Z,4.90
2023-05-09T06:18:28.058Z,4.80
2023-05-09T06:21:30.625Z,4.90
2023-05-09T06:24:36.272Z,4.80
2023-05-09T06:27:39.342Z,4.90
2023-05-09T06:30:41.852Z,4.30
2023-05-09T06:33:44.452Z,4.70
2023-05-09T06:36:47.229Z,4.90
2023-05-09T06:39:51.132Z,3.80
2023-05-09T06:42:53.759Z,3.60
2023-05-09T06:45:56.294Z,4.00
2023-05-09T06:49:01.791Z,4.30
2023-05-09T06:52:04.555Z,4.30
2023-05-09T06:55:08.333Z,4.40
2023-05-09T06:58:12.230Z,3.90
2023-05-09T07:01:14.781Z,4.00
2023-05-09T07:04:17.361Z,4.20
2023-05-09T07:07:19.917Z,4.10
2023-05-09T07:10:22.570Z,4.30
2023-05-09T07:13:25.377Z,3.70
2023-05-09T07:16:29.570Z,4.40
2023-05-09T07:19:32.226Z,3.80
2023-05-09T07:22:36.978Z,3.70
2023-05-09T07:25:40.457Z,3.40
2023-05-09T07:28:43.103Z,3.60
2023-05-09T07:31:46.185Z,3.20
2023-05-09T07:34:48.761Z,3.20
2023-05-09T07:37:51.376Z,3.60
2023-05-09T07:40:53.932Z,3.50
2023-05-09T07:43:56.801Z,3.30
2023-05-09T07:46:59.989Z,3.60
2023-05-09T07:50:02.750Z,3.40
2023-05-09T07:53:05.411Z,3.20
2023-05-09T07:56:08.076Z,3.40
2023-05-09T07:59:10.812Z,3.10
2023-05-09T08:02:13.423Z,2.80
2023-05-09T08:05:16.507Z,3.20
2023-05-09T08:08:19.347Z,3.00
2023-05-09T08:11:22.058Z,2.90
2023-05-09T08:14:24.691Z,3.10
2023-05-09T08:17:27.320Z,3.00
2023-05-09T08:20:31.882Z,3.00
2023-05-09T08:23:34.812Z,3.20
2023-05-09T08:26:37.501Z,2.60
2023-05-09T08:29:40.774Z,3.10
2023-05-09T08:32:43.289Z,3.70
2023-05-09T08:35:50.511Z,2.70
2023-05-09T08:38:53.298Z,2.90
2023-05-09T08:42:00.244Z,2.70
2023-05-09T08:45:16.316Z,2.50
2023-05-09T08:48:19.598Z,3.20
2023-05-09T08:51:22.416Z,2.70
2023-05-09T08:54:27.499Z,2.70
2023-05-09T08:57:32.958Z,2.80
2023-05-09T09:00:38.973Z,2.70
2023-05-09T09:03:47.805Z,2.80
2023-05-09T09:06:53.035Z,2.40
2023-05-09T09:09:57.788Z,2.50
2023-05-09T09:13:03.519Z,2.80
2023-05-09T09:16:09.016Z,2.90
2023-05-09T09:19:13.765Z,2.50
2023-05-09T09:22:19.398Z,3.20
2023-05-09T09:25:22.060Z,3.30
2023-05-09T09:28:24.727Z,3.30
2023-05-09T09:31:31.737Z,2.60
2023-05-09T09:34:34.471Z,2.90
2023-05-09T09:37:43.649Z,2.50
2023-05-09T09:40:52.316Z,2.70
2023-05-09T09:43:58.189Z,2.50
2023-05-09T09:47:01.704Z,2.70
2023-05-09T09:50:15.477Z,2.50
2023-05-09T09:53:20.844Z,2.60
2023-05-09T09:56:39.170Z,2.30
2023-05-09T09:59:42.750Z,2.50
2023-05-09T10:02:56.483Z,2.50
2023-05-09T10:06:02.532Z,2.60
2023-05-09T10:09:05.179Z,2.60
2023-05-09T10:12:08.667Z,2.60
2023-05-09T10:15:12.961Z,2.90
2023-05-09T10:18:20.335Z,2.50
2023-05-09T10:21:22.989Z,2.50
2023-05-09T10:24:35.540Z,2.20
2023-05-09T10:27:41.528Z,2.70
2023-05-09T10:30:59.978Z,1.90
2023-05-09T10:34:09.902Z,2.20
2023-05-09T10:37:12.705Z,2.20
2023-05-09T10:40:15.786Z,2.10
2023-05-09T10:43:18.634Z,2.10
2023-05-09T10:46:23.626Z,2.20
2023-05-09T10:49:26.906Z,2.30
2023-05-09T10:52:35.881Z,2.10
2023-05-09T10:55:48.608Z,2.10
2023-05-09T10:58:51.254Z,2.10
2023-05-09T11:02:01.077Z,2.00
2023-05-09T11:05:18.285Z,1.90
2023-05-09T11:08:23.379Z,2.20
2023-05-09T11:11:26.100Z,1.90
2023-05-09T11:14:41.124Z,2.00
2023-05-09T11:17:43.778Z,2.40
2023-05-09T11:20:49.138Z,2.00
2023-05-09T11:23:54.448Z,2.40
2023-05-09T11:26:57.927Z,2.20
2023-05-09T11:30:05.572Z,2.30
2023-05-09T11:33:27.337Z,2.20
2023-05-09T11:36:33.706Z,2.00
2023-05-09T11:39:55.583Z,1.80
2023-05-09T11:42:59.448Z,1.90
2023-05-09T11:46:03.507Z,2.10
2023-05-09T11:49:10.627Z,2.30
2023-05-09T11:52:14.524Z,1.90
2023-05-09T11:55:19.888Z,2.20
2023-05-09T11:58:22.532Z,2.90
2023-05-09T12:01:25.780Z,2.00
2023-05-09T12:04:30.486Z,1.80
2023-05-09T12:07:33.050Z,2.10
2023-05-09T12:10:40.323Z,2.00
2023-05-09T12:13:48.556Z,1.80
2023-05-09T12:16:51.160Z,1.80
2023-05-09T12:19:54.232Z,1.90
2023-05-09T12:22:56.913Z,1.90
2023-05-09T12:25:59.583Z,2.00
2023-05-09T12:29:02.262Z,1.80
2023-05-09T12:32:05.419Z,2.00
2023-05-09T12:35:10.770Z,2.00
2023-05-09T12:38:23.441Z,1.90
2023-05-09T12:44:31.882Z,2.20
2023-05-09T12:47:34.541Z,2.00
2023-05-09T12:50:37.187Z,2.40
2023-05-09T12:53:41.762Z,2.10
2023-05-09T12:56:45.362Z,2.30
2023-05-09T12:59:48.336Z,1.90
2023-05-09T13:02:53.145Z,2.20
2023-05-09T13:06:01.160Z,2.00
2023-05-09T13:09:08.120Z,2.40
2023-05-09T13:12:10.821Z,2.20
2023-05-09T13:15:14.473Z,2.20
2023-05-09T13:18:17.759Z,2.10
2023-05-09T13:21:21.230Z,1.80
2023-05-09T13:24:23.982Z,2.00
2023-05-09T13:27:28.082Z,2.20
2023-05-09T13:30:31.252Z,1.80
2023-05-09T13:33:34.031Z,2.30
2023-05-09T13:36:36.770Z,1.70
2023-05-09T13:39:39.562Z,1.50
2023-05-09T13:42:42.378Z,1.60
2023-05-09T13:45:45.004Z,1.80
2023-05-09T13:48:48.072Z,1.80
2023-05-09T13:51:50.938Z,1.90
2023-05-09T13:54:53.618Z,1.40
2023-05-09T13:57:56.474Z,1.60
2023-05-09T14:00:59.155Z,1.50
2023-05-09T14:04:02.788Z,1.40
2023-05-09T14:07:05.506Z,1.50
2023-05-09T14:10:11.969Z,1.60
2023-05-09T14:13:15.916Z,1.50
2023-05-09T14:16:22.339Z,1.10
2023-05-09T14:19:30.160Z,1.30
2023-05-09T14:22:32.862Z,1.50
2023-05-09T14:25:35.505Z,1.10
2023-05-09T14:28:38.374Z,1.50
2023-05-09T14:31:41.075Z,1.60
2023-05-09T14:34:44.072Z,1.40
2023-05-09T14:37:47.606Z,1.60
2023-05-09T14:40:50.171Z,1.40
2023-05-09T14:43:52.839Z,1.30
2023-05-09T14:46:55.772Z,1.30
2023-05-09T14:49:58.772Z,1.40
2023-05-09T14:53:02.255Z,1.20
2023-05-09T14:56:05.777Z,1.40
2023-05-09T14:59:09.637Z,1.50
2023-05-09T15:02:12.627Z,1.30
2023-05-09T15:05:15.995Z,1.40
2023-05-09T15:08:19.065Z,1.60
2023-05-09T15:11:22.134Z,1.40
2023-05-09T15:14:24.849Z,1.20
2023-05-09T15:17:27.566Z,1.30
2023-05-09T15:20:30.130Z,1.20
2023-05-09T15:23:32.911Z,1.10
2023-05-09T15:26:35.766Z,1.50
2023-05-09T15:29:38.840Z,1.50
2023-05-09T15:32:41.696Z,1.30
2023-05-09T15:35:45.295Z,1.50
2023-05-09T15:38:49.719Z,1.20
2023-05-09T15:41:52.753Z,1.40
2023-05-09T15:44:55.354Z,1.50
2023-05-09T15:47:59.087Z,1.20
2023-05-09T15:51:02.821Z,1.50
2023-05-09T15:54:05.465Z,1.30
2023-05-09T15:57:08.353Z,1.50
2023-05-09T16:00:12.459Z,1.30
2023-05-09T16:03:15.439Z,0.90
2023-05-09T16:06:18.402Z,1.30
2023-05-09T16:09:21.558Z,1.30
2023-05-09T16:12:25.238Z,1.10
2023-05-09T16:15:27.829Z,1.30
2023-05-09T16:18:30.394Z,1.40
2023-05-09T16:21:33.422Z,1.50
2023-05-09T16:24:37.395Z,1.40
2023-05-09T16:27:40.143Z,1.40
2023-05-09T16:30:42.696Z,1.50
2023-05-09T16:33:47.142Z,1.20
2023-05-09T16:36:49.965Z,1.30
2023-05-09T16:39:52.472Z,1.20
2023-05-09T16:42:55.087Z,1.50
2023-05-09T16:45:57.770Z,1.50
2023-05-09T16:49:00.418Z,1.30
2023-05-09T16:52:03.008Z,1.50
2023-05-09T16:55:06.172Z,1.90
2023-05-09T16:58:08.760Z,1.20
2023-05-09T17:01:11.790Z,1.20
2023-05-09T17:04:14.820Z,1.60
2023-05-09T17:07:17.380Z,1.50
2023-05-09T17:10:20.039Z,1.70
2023-05-09T17:13:22.787Z,1.50
2023-05-09T17:16:25.616Z,1.40
2023-05-09T17:19:28.301Z,1.30
2023-05-09T17:22:30.968Z,1.50
2023-05-09T17:25:33.525Z,1.80
2023-05-09T17:28:36.147Z,1.40
2023-05-09T17:31:38.775Z,1.50
2023-05-09T17:34:41.744Z,1.60
2023-05-09T17:37:44.498Z,1.80
2023-05-09T17:40:47.579Z,1.70
2023-05-09T17:43:52.183Z,1.60
2023-05-09T17:46:54.947Z,1.90
2023-05-09T17:49:57.518Z,1.50
2023-05-09T17:53:00.545Z,1.60
2023-05-09T17:56:03.234Z,1.60
2023-05-09T17:59:06.646Z,1.70
2023-05-09T18:02:09.290Z,1.60
2023-05-09T18:05:11.890Z,2.20
2023-05-09T18:08:14.523Z,1.80
2023-05-09T18:11:17.149Z,1.90
2023-05-09T18:14:19.727Z,1.80
2023-05-09T18:17:22.367Z,1.70
2023-05-09T18:20:25.078Z,1.60
2023-05-09T18:23:31.749Z,1.50
2023-05-09T18:26:34.280Z,1.50
2023-05-09T18:29:38.097Z,2.40
2023-05-09T18:32:41.227Z,1.70
2023-05-09T18:35:43.917Z,1.80
2023-05-09T18:38:47.933Z,2.10
2023-05-09T18:41:50.797Z,1.90
2023-05-09T18:44:53.672Z,1.80
2023-05-09T18:47:56.249Z,2.10
2023-05-09T18:50:59.103Z,2.10
2023-05-09T18:54:02.114Z,2.60
2023-05-09T18:57:04.740Z,2.60
2023-05-09T19:00:08.329Z,2.50
2023-05-09T19:03:10.962Z,3.00
2023-05-09T19:06:14.791Z,2.90
2023-05-09T19:09:18.162Z,3.20
2023-05-09T19:12:20.932Z,2.60
2023-05-09T19:15:23.593Z,3.00
2023-05-09T19:18:26.340Z,2.90
2023-05-09T19:21:29.832Z,3.20
2023-05-09T19:24:53.190Z,2.40
2023-05-09T19:27:56.369Z,2.30
2023-05-09T19:30:59.151Z,2.80
2023-05-09T19:34:02.003Z,2.30
2023-05-09T19:37:04.564Z,3.20
2023-05-09T19:40:13.452Z,3.50
2023-05-09T19:43:16.787Z,3.10
2023-05-09T19:46:19.473Z,2.70
2023-05-09T19:49:22.293Z,3.10
2023-05-09T19:52:24.947Z,2.50
2023-05-09T19:55:27.922Z,2.70
2023-05-09T19:58:30.425Z,2.80
2023-05-09T20:01:33.094Z,3.00
2023-05-09T20:04:36.537Z,2.80
2023-05-09T20:10:57.449Z,2.50
2023-05-09T20:14:00.112Z,2.70
2023-05-09T20:17:04.388Z,2.30
2023-05-09T20:20:07.685Z,2.50
2023-05-09T20:23:10.751Z,2.60
2023-05-09T20:26:13.410Z,2.00
2023-05-09T20:29:16.277Z,2.50
2023-05-09T20:32:18.938Z,2.30
2023-05-09T20:35:21.711Z,2.70
2023-05-09T20:38:24.376Z,2.60
2023-05-09T20:41:49.247Z,2.80
2023-05-09T20:44:53.038Z,2.80
2023-05-09T20:47:56.074Z,2.60
2023-05-09T20:50:58.787Z,2.50
2023-05-09T20:54:01.441Z,2.30
2023-05-09T20:57:09.122Z,2.30
2023-05-09T21:00:12.349Z,2.80
2023-05-09T21:03:15.179Z,2.30
2023-05-09T21:06:18.146Z,2.70
2023-05-09T21:09:20.817Z,3.20
2023-05-09T21:12:30.852Z,2.30
2023-05-09T21:15:33.518Z,2.80
2023-05-09T21:22:32.153Z,2.90
2023-05-09T21:25:34.815Z,2.30
2023-05-09T21:28:59.384Z,2.40
2023-05-09T21:32:02.066Z,3.00
2023-05-09T21:35:07.407Z,2.40
2023-05-09T21:38:10.036Z,2.60
2023-05-09T21:41:12.701Z,3.20
2023-05-09T21:44:22.530Z,2.50
2023-05-09T21:47:25.370Z,3.30
2023-05-09T21:54:27.431Z,2.70
2023-05-09T21:57:30.086Z,2.90
2023-05-09T22:00:49.066Z,2.50
2023-05-09T22:06:54.764Z,3.00
2023-05-09T22:16:50.917Z,2.60
2023-05-09T22:19:53.742Z,3.10
2023-05-09T22:22:56.714Z,3.00
2023-05-09T22:25:59.365Z,2.90
2023-05-09T22:29:02.133Z,2.30
2023-05-09T22:32:07.768Z,3.30
2023-05-09T22:35:10.743Z,2.80
2023-05-09T22:38:23.531Z,2.50
2023-05-09T22:41:26.319Z,3.20
2023-05-09T22:44:35.737Z,3.20
2023-05-09T22:47:38.306Z,2.60
2023-05-09T22:50:41.223Z,3.10
2023-05-09T22:53:43.811Z,2.70
2023-05-09T22:56:47.501Z,2.90
2023-05-09T22:59:50.278Z,3.20
2023-05-09T23:02:52.964Z,3.30
2023-05-09T23:05:55.905Z,3.10
2023-05-09T23:08:58.572Z,2.90
2023-05-09T23:12:01.424Z,2.80
2023-05-09T23:15:05.841Z,2.50
2023-05-09T23:18:08.591Z,2.80
2023-05-09T23:21:11.263Z,2.80
2023-05-09T23:24:13.846Z,3.10
2023-05-09T23:27:16.410Z,3.00
2023-05-09T23:30:19.045Z,3.30
2023-05-09T23:33:21.655Z,2.50
2023-05-09T23:36:24.193Z,2.60
2023-05-09T23:39:26.701Z,2.70
2023-05-09T23:42:29.322Z,2.90
2023-05-09T23:45:32.300Z,3.00
2023-05-09T23:48:34.957Z,3.10
2023-05-09T23:51:37.831Z,3.30
2023-05-09T23:54:40.590Z,3.10
2023-05-09T23:57:43.246Z,3.00
